Time;durP1;ratioP1;P1;durP2;ratioP2;P2;SDS_P1;SDS_P2;PMS_P1;PMS_P2;Temp;Humidity;BMP_temperature;BMP_pressure;BME280_temperature;BME280_humidity;BME280_pressure;Samples;Min_cycle;Max_cycle;Signal;HPM_P1;HPM_P2
2023/12/04 00:00:51;;;;;;;55.55;17.10;;;;;;;;;;5011127;28;20026;-71
2023/12/04 00:03:36;;;;;;;58.45;16.92;;;;;;;;;;5005592;28;20024;-69
2023/12/04 00:06:23;;;;;;;45.83;14.48;;;;;;;;;;5017440;28;20022;-68
2023/12/04 00:09:08;;;;;;;46.85;15.65;;;;;;;;;;5013170;28;20030;-68
2023/12/04 00:11:54;;;;;;;55.25;16.08;;;;;;;;;;5014225;28;20026;-69
2023/12/04 00:14:40;;;;;;;53.75;16.77;;;;;;;;;;5011360;28;20384;-68
2023/12/04 00:17:25;;;;;;;51.88;18.13;;;;;;;;;;5013613;28;20034;-68
2023/12/04 00:20:11;;;;;;;48.22;16.23;;;;;;;;;;5013591;28;20022;-68
2023/12/04 00:22:56;;;;;;;50.30;17.35;;;;;;;;;;5014351;28;20025;-68
2023/12/04 00:25:42;;;;;;;51.85;17.40;;;;;;;;;;5013649;28;20030;-68
2023/12/04 00:28:28;;;;;;;44.47;14.65;;;;;;;;;;5002318;23;1044222;-71
2023/12/04 00:31:14;;;;;;;55.03;17.15;;;;;;;;;;5000726;28;20096;-70
2023/12/04 00:34:00;;;;;;;42.63;13.68;;;;;;;;;;5014726;28;20057;-70
2023/12/04 00:36:45;;;;;;;57.53;18.02;;;;;;;;;;5013789;28;20026;-70
2023/12/04 00:39:31;;;;;;;42.10;14.80;;;;;;;;;;5013848;28;20030;-70
2023/12/04 00:42:16;;;;;;;50.33;14.73;;;;;;;;;;5014444;28;20498;-70
2023/12/04 00:45:02;;;;;;;45.10;14.82;;;;;;;;;;4999968;28;20022;-70
2023/12/04 00:47:48;;;;;;;38.42;13.20;;;;;;;;;;5014483;28;20529;-70
2023/12/04 00:50:34;;;;;;;55.10;16.42;;;;;;;;;;5013525;28;20108;-70
2023/12/04 00:53:19;;;;;;;44.17;15.90;;;;;;;;;;5013882;28;20018;-70
2023/12/04 00:56:06;;;;;;;48.60;16.17;;;;;;;;;;4999495;28;20025;-70
2023/12/04 00:58:51;;;;;;;52.35;17.13;;;;;;;;;;5013576;28;20060;-70
2023/12/04 01:01:37;;;;;;;43.83;14.90;;;;;;;;;;5000469;28;20112;-70
2023/12/04 01:04:23;;;;;;;45.47;14.82;;;;;;;;;;4999888;28;20030;-70
2023/12/04 01:07:09;;;;;;;50.13;15.02;;;;;;;;;;5013244;28;20025;-70
2023/12/04 01:09:54;;;;;;;43.70;15.38;;;;;;;;;;5013521;28;20076;-70
2023/12/04 01:12:40;;;;;;;50.15;16.15;;;;;;;;;;5013381;28;20029;-70
2023/12/04 01:15:25;;;;;;;43.33;14.88;;;;;;;;;;5012941;28;20030;-70
2023/12/04 01:18:11;;;;;;;46.13;14.07;;;;;;;;;;5013977;28;20025;-70
2023/12/04 01:20:57;;;;;;;39.42;14.15;;;;;;;;;;5012902;28;20484;-70
2023/12/04 01:23:42;;;;;;;52.90;15.98;;;;;;;;;;5013829;28;20080;-70
2023/12/04 01:26:28;;;;;;;50.70;18.35;;;;;;;;;;5014060;28;20018;-70
2023/12/04 01:29:14;;;;;;;54.53;16.35;;;;;;;;;;5012807;28;20487;-70
2023/12/04 01:31:59;;;;;;;46.42;13.98;;;;;;;;;;5013116;28;20032;-70
2023/12/04 01:34:45;;;;;;;44.22;15.02;;;;;;;;;;5013374;28;20064;-70
2023/12/04 01:37:31;;;;;;;51.03;15.27;;;;;;;;;;5012401;28;20021;-70
2023/12/04 01:40:17;;;;;;;51.60;17.33;;;;;;;;;;5012689;28;20022;-70
2023/12/04 01:43:03;;;;;;;48.67;14.95;;;;;;;;;;5007327;28;20030;-70
2023/12/04 01:45:49;;;;;;;57.30;16.17;;;;;;;;;;4993576;28;20026;-70
2023/12/04 01:48:35;;;;;;;46.42;15.13;;;;;;;;;;4993578;28;20034;-70
2023/12/04 01:51:21;;;;;;;56.90;16.17;;;;;;;;;;4992610;28;20064;-70
2023/12/04 01:54:07;;;;;;;48.42;17.58;;;;;;;;;;4978730;28;20066;-70
2023/12/04 01:56:53;;;;;;;47.65;13.52;;;;;;;;;;4994796;28;20507;-70
2023/12/04 01:59:38;;;;;;;43.45;14.73;;;;;;;;;;4994655;28;20026;-70
2023/12/04 02:02:24;;;;;;;54.83;15.65;;;;;;;;;;4993950;28;20128;-70
2023/12/04 02:05:10;;;;;;;51.63;15.73;;;;;;;;;;4995033;28;20105;-70
2023/12/04 02:07:56;;;;;;;51.63;15.65;;;;;;;;;;4993860;28;20406;-70
2023/12/04 02:10:42;;;;;;;46.08;15.23;;;;;;;;;;4994619;28;20110;-70
2023/12/04 02:13:28;;;;;;;51.55;15.60;;;;;;;;;;5007857;28;20021;-70
2023/12/04 02:16:14;;;;;;;50.72;17.25;;;;;;;;;;5012524;28;20029;-70
2023/12/04 02:19:00;;;;;;;53.22;17.88;;;;;;;;;;4998587;28;20022;-70
2023/12/04 02:21:46;;;;;;;47.25;15.82;;;;;;;;;;5011976;28;20029;-70
2023/12/04 02:24:34;;;;;;;52.42;16.15;;;;;;;;;;5011814;28;20029;-70
2023/12/04 02:27:25;;;;;;;39.10;13.93;;;;;;;;;;5013725;28;20025;-70
2023/12/04 02:30:12;;;;;;;56.65;18.40;;;;;;;;;;4997972;28;20495;-70
2023/12/04 02:32:59;;;;;;;52.33;15.48;;;;;;;;;;5013337;28;20026;-70
2023/12/04 02:35:45;;;;;;;52.88;18.73;;;;;;;;;;5002635;28;20030;-70
2023/12/04 02:38:31;;;;;;;47.08;14.95;;;;;;;;;;5002852;28;20021;-70
2023/12/04 02:41:17;;;;;;;53.55;16.67;;;;;;;;;;5015808;28;20029;-70
2023/12/04 02:44:03;;;;;;;52.17;15.23;;;;;;;;;;5015309;28;20022;-70
2023/12/04 02:50:30;;;;;;;50.33;13.95;;;;;;;;;;4996799;28;20030;-71
2023/12/04 02:53:16;;;;;;;46.70;14.93;;;;;;;;;;4994809;28;20026;-71
2023/12/04 02:56:01;;;;;;;41.47;15.52;;;;;;;;;;4996586;28;20512;-70
2023/12/04 02:58:47;;;;;;;52.05;15.82;;;;;;;;;;4996500;28;20396;-71
2023/12/04 03:01:33;;;;;;;47.38;15.50;;;;;;;;;;4996267;28;20023;-70
2023/12/04 03:04:19;;;;;;;42.45;15.38;;;;;;;;;;4996709;28;20022;-70
2023/12/04 03:07:05;;;;;;;47.00;14.35;;;;;;;;;;4996843;28;20510;-70
2023/12/04 03:09:50;;;;;;;46.70;16.10;;;;;;;;;;4982749;28;20031;-70
2023/12/04 03:12:36;;;;;;;46.88;15.30;;;;;;;;;;4996069;28;20045;-70
2023/12/04 03:15:22;;;;;;;54.05;16.40;;;;;;;;;;4996262;28;20031;-70
2023/12/04 03:18:07;;;;;;;57.05;16.02;;;;;;;;;;4995417;28;20499;-70
2023/12/04 03:20:53;;;;;;;49.80;16.42;;;;;;;;;;4996554;28;20034;-70
2023/12/04 03:23:38;;;;;;;49.35;14.77;;;;;;;;;;4996366;28;20049;-70
2023/12/04 03:26:25;;;;;;;42.85;17.25;;;;;;;;;;4995645;28;20025;-70
2023/12/04 03:29:10;;;;;;;51.38;15.35;;;;;;;;;;4980034;28;20117;-70
2023/12/04 03:31:56;;;;;;;47.40;14.50;;;;;;;;;;4996258;28;20112;-70
2023/12/04 03:34:41;;;;;;;43.40;14.27;;;;;;;;;;4996173;28;20037;-70
2023/12/04 03:37:27;;;;;;;46.85;15.77;;;;;;;;;;4995991;28;20412;-70
2023/12/04 03:40:13;;;;;;;41.45;15.43;;;;;;;;;;4994902;28;20030;-70
2023/12/04 03:42:58;;;;;;;42.88;15.85;;;;;;;;;;4996001;28;20022;-70
2023/12/04 03:45:44;;;;;;;42.47;15.30;;;;;;;;;;4996096;28;20035;-70
2023/12/04 03:48:30;;;;;;;51.40;16.38;;;;;;;;;;4995448;28;20491;-70
2023/12/04 03:51:15;;;;;;;51.08;14.65;;;;;;;;;;4995962;28;20027;-70
2023/12/04 03:54:01;;;;;;;50.55;15.10;;;;;;;;;;4994885;28;20034;-70
2023/12/04 03:56:47;;;;;;;40.35;14.82;;;;;;;;;;4995580;28;20030;-70
2023/12/04 03:59:32;;;;;;;45.03;14.85;;;;;;;;;;4981819;28;20022;-70
2023/12/04 04:02:18;;;;;;;34.45;13.05;;;;;;;;;;4995035;28;20058;-70
2023/12/04 04:05:04;;;;;;;38.28;13.57;;;;;;;;;;4996063;28;20026;-70
2023/12/04 04:07:49;;;;;;;40.90;13.88;;;;;;;;;;4996081;28;20018;-70
2023/12/04 04:10:36;;;;;;;47.65;15.43;;;;;;;;;;4995370;28;20033;-70
2023/12/04 04:13:22;;;;;;;32.25;13.35;;;;;;;;;;4980736;28;20023;-70
2023/12/04 04:16:08;;;;;;;42.60;14.18;;;;;;;;;;4994486;28;20031;-71
2023/12/04 04:18:53;;;;;;;38.90;14.52;;;;;;;;;;4984068;28;20121;-70
2023/12/04 04:21:40;;;;;;;32.17;12.98;;;;;;;;;;5012199;28;20080;-70
2023/12/04 04:24:26;;;;;;;39.40;15.10;;;;;;;;;;4980594;28;20034;-70
2023/12/04 04:27:11;;;;;;;40.88;14.35;;;;;;;;;;4996462;28;20506;-70
2023/12/04 04:29:57;;;;;;;40.03;14.15;;;;;;;;;;4995515;28;20118;-70
2023/12/04 04:32:43;;;;;;;41.38;14.80;;;;;;;;;;4996234;28;20018;-70
2023/12/04 04:35:28;;;;;;;43.22;13.60;;;;;;;;;;4993980;28;20034;-70
2023/12/04 04:38:14;;;;;;;42.80;13.38;;;;;;;;;;4996005;28;20036;-70
2023/12/04 04:40:59;;;;;;;41.85;14.20;;;;;;;;;;5003975;28;20013;-70
2023/12/04 04:43:45;;;;;;;33.72;12.73;;;;;;;;;;5013890;28;20061;-70
2023/12/04 04:46:31;;;;;;;41.05;13.80;;;;;;;;;;5012596;28;20076;-70
2023/12/04 04:49:16;;;;;;;42.70;13.98;;;;;;;;;;5013023;28;20553;-70
2023/12/04 04:52:02;;;;;;;37.45;13.25;;;;;;;;;;5012884;28;20026;-70
2023/12/04 04:54:48;;;;;;;38.13;13.27;;;;;;;;;;5013743;28;20030;-70
2023/12/04 04:57:34;;;;;;;39.40;13.38;;;;;;;;;;4995259;28;20026;-70
2023/12/04 05:00:19;;;;;;;40.63;14.85;;;;;;;;;;4993042;28;20030;-70
2023/12/04 05:03:05;;;;;;;37.25;11.93;;;;;;;;;;4995234;28;20022;-70
2023/12/04 05:05:51;;;;;;;36.88;13.05;;;;;;;;;;5013553;28;20057;-70
2023/12/04 05:08:36;;;;;;;33.47;11.98;;;;;;;;;;4980759;28;20485;-68
2023/12/04 05:11:22;;;;;;;37.63;13.60;;;;;;;;;;4992400;28;20026;-67
2023/12/04 05:14:07;;;;;;;47.00;15.05;;;;;;;;;;5007925;28;20407;-67
2023/12/04 05:16:53;;;;;;;41.90;13.50;;;;;;;;;;5013165;28;20037;-67
2023/12/04 05:19:39;;;;;;;35.05;13.45;;;;;;;;;;4999761;28;20052;-67
2023/12/04 05:22:25;;;;;;;37.63;13.15;;;;;;;;;;5013599;28;20475;-67
2023/12/04 05:25:10;;;;;;;34.78;13.02;;;;;;;;;;5014353;28;20030;-67
2023/12/04 05:27:56;;;;;;;42.47;14.57;;;;;;;;;;5013337;28;20022;-67
2023/12/04 05:30:42;;;;;;;34.75;13.02;;;;;;;;;;5012461;28;20399;-67
2023/12/04 05:33:27;;;;;;;41.55;13.00;;;;;;;;;;5012517;28;20022;-67
2023/12/04 05:36:13;;;;;;;34.42;12.50;;;;;;;;;;5012756;28;20042;-67
2023/12/04 05:38:58;;;;;;;38.08;13.32;;;;;;;;;;4994250;28;20034;-67
2023/12/04 05:41:44;;;;;;;40.75;13.48;;;;;;;;;;4993568;28;20668;-67
2023/12/04 05:44:31;;;;;;;35.90;13.27;;;;;;;;;;5011169;28;20453;-67
2023/12/04 05:47:17;;;;;;;40.83;12.40;;;;;;;;;;4997692;28;20026;-67
2023/12/04 05:50:02;;;;;;;32.60;12.57;;;;;;;;;;5011493;28;20384;-68
2023/12/04 05:52:48;;;;;;;43.35;13.00;;;;;;;;;;5007239;28;20033;-70
2023/12/04 05:55:34;;;;;;;31.80;13.10;;;;;;;;;;5012580;28;20399;-70
2023/12/04 05:58:19;;;;;;;29.70;12.38;;;;;;;;;;5012348;28;20025;-70
2023/12/04 06:01:06;;;;;;;28.38;11.82;;;;;;;;;;5012261;28;20053;-70
2023/12/04 06:03:51;;;;;;;34.35;13.63;;;;;;;;;;4985430;28;20501;-70
2023/12/04 06:06:37;;;;;;;41.70;13.07;;;;;;;;;;5011968;28;20030;-70
2023/12/04 06:09:23;;;;;;;37.33;13.57;;;;;;;;;;5011799;28;20025;-70
2023/12/04 06:12:09;;;;;;;41.00;12.90;;;;;;;;;;5012790;28;20156;-70
2023/12/04 06:14:55;;;;;;;36.85;12.50;;;;;;;;;;5011470;28;20037;-70
2023/12/04 06:17:40;;;;;;;41.13;14.13;;;;;;;;;;5011866;28;20018;-70
2023/12/04 06:20:26;;;;;;;28.00;11.80;;;;;;;;;;5011908;28;20053;-70
2023/12/04 06:23:12;;;;;;;37.72;11.88;;;;;;;;;;5012290;28;20018;-70
2023/12/04 06:25:58;;;;;;;33.80;12.02;;;;;;;;;;5011486;28;20022;-69
2023/12/04 06:28:44;;;;;;;32.53;12.27;;;;;;;;;;5011886;28;20070;-69
2023/12/04 06:31:30;;;;;;;35.15;12.05;;;;;;;;;;5012486;28;20054;-70
2023/12/04 06:34:16;;;;;;;32.45;11.73;;;;;;;;;;5011167;28;20026;-70
2023/12/04 06:37:02;;;;;;;37.65;12.38;;;;;;;;;;4998374;28;20083;-70
2023/12/04 06:39:48;;;;;;;28.83;11.55;;;;;;;;;;5012730;28;20407;-70
2023/12/04 06:42:37;;;;;;;31.38;10.73;;;;;;;;;;5010735;28;20030;-67
2023/12/04 06:45:23;;;;;;;40.72;14.45;;;;;;;;;;4998098;28;20491;-67
2023/12/04 06:48:11;;;;;;;29.50;12.07;;;;;;;;;;4997735;28;20403;-70
2023/12/04 06:50:57;;;;;;;29.05;11.38;;;;;;;;;;5010909;28;20029;-70
2023/12/04 06:53:42;;;;;;;31.58;10.43;;;;;;;;;;5012042;28;20457;-70
2023/12/04 06:56:28;;;;;;;29.52;11.90;;;;;;;;;;5010761;28;20030;-70
2023/12/04 06:59:14;;;;;;;29.27;10.20;;;;;;;;;;4991880;28;20026;-70
2023/12/04 07:02:00;;;;;;;31.15;12.35;;;;;;;;;;5000104;28;20056;-69
2023/12/04 07:04:45;;;;;;;26.92;11.18;;;;;;;;;;5011694;28;20026;-70
2023/12/04 07:07:31;;;;;;;30.50;13.02;;;;;;;;;;5011027;28;20076;-70
2023/12/04 07:10:17;;;;;;;39.63;12.02;;;;;;;;;;5010598;28;20026;-70
2023/12/04 07:13:02;;;;;;;34.13;13.30;;;;;;;;;;5011271;28;20391;-70
2023/12/04 07:15:48;;;;;;;32.95;12.60;;;;;;;;;;5011718;28;20026;-70
2023/12/04 07:18:34;;;;;;;27.98;10.93;;;;;;;;;;5011472;28;20108;-70
2023/12/04 07:21:20;;;;;;;36.85;10.70;;;;;;;;;;5000727;28;20121;-70
2023/12/04 07:24:06;;;;;;;35.42;12.52;;;;;;;;;;5014917;28;20021;-69
2023/12/04 07:26:51;;;;;;;28.50;9.75;;;;;;;;;;5001555;28;20022;-70
2023/12/04 07:29:38;;;;;;;26.92;10.20;;;;;;;;;;5014201;28;20030;-69
2023/12/04 07:32:23;;;;;;;25.10;10.93;;;;;;;;;;5013453;28;20037;-70
2023/12/04 07:35:09;;;;;;;30.23;11.40;;;;;;;;;;5016567;28;20458;-70
2023/12/04 07:37:54;;;;;;;27.35;12.98;;;;;;;;;;5014955;28;20029;-70
2023/12/04 07:40:40;;;;;;;27.63;10.18;;;;;;;;;;5014829;28;20418;-70
2023/12/04 07:43:27;;;;;;;31.00;10.95;;;;;;;;;;5015159;28;20014;-70
2023/12/04 07:46:13;;;;;;;25.35;10.40;;;;;;;;;;5014261;28;20033;-70
2023/12/04 07:48:59;;;;;;;28.10;9.82;;;;;;;;;;5014864;28;20058;-70
2023/12/04 07:51:45;;;;;;;20.30;9.27;;;;;;;;;;5014063;28;20032;-70
2023/12/04 07:54:30;;;;;;;31.58;10.20;;;;;;;;;;5014768;28;20029;-70
2023/12/04 07:57:16;;;;;;;28.08;9.32;;;;;;;;;;5013813;28;20030;-70
2023/12/04 08:00:02;;;;;;;30.35;10.32;;;;;;;;;;5014743;28;20017;-70
2023/12/04 08:02:47;;;;;;;26.17;10.77;;;;;;;;;;5013775;28;20447;-69
2023/12/04 08:05:33;;;;;;;29.20;10.18;;;;;;;;;;5014240;28;20030;-70
2023/12/04 08:08:19;;;;;;;22.88;9.52;;;;;;;;;;5013905;28;20053;-70
2023/12/04 08:11:04;;;;;;;27.90;10.48;;;;;;;;;;5000757;28;20037;-70
2023/12/04 08:13:50;;;;;;;29.05;10.35;;;;;;;;;;5010997;28;20030;-70
2023/12/04 08:16:36;;;;;;;28.73;10.95;;;;;;;;;;5014065;28;20496;-69
2023/12/04 08:19:23;;;;;;;29.73;10.95;;;;;;;;;;5013867;28;20033;-70
2023/12/04 08:22:09;;;;;;;25.55;8.50;;;;;;;;;;5007593;28;20101;-70
2023/12/04 08:24:54;;;;;;;24.92;9.10;;;;;;;;;;4994039;28;20081;-70
2023/12/04 08:27:40;;;;;;;29.27;10.63;;;;;;;;;;4993722;28;20558;-69
2023/12/04 08:30:27;;;;;;;28.33;10.65;;;;;;;;;;5012583;28;20026;-70
2023/12/04 08:33:12;;;;;;;25.10;10.15;;;;;;;;;;5014721;28;20029;-70
2023/12/04 08:35:58;;;;;;;26.42;9.80;;;;;;;;;;5014514;28;20061;-70
2023/12/04 08:38:44;;;;;;;20.30;10.60;;;;;;;;;;5012891;28;20028;-70
2023/12/04 08:41:29;;;;;;;29.35;9.32;;;;;;;;;;5012732;28;20030;-70
2023/12/04 08:44:15;;;;;;;35.35;10.40;;;;;;;;;;5011037;28;20407;-70
2023/12/04 08:47:01;;;;;;;29.77;9.77;;;;;;;;;;5013370;28;20066;-69
2023/12/04 08:49:46;;;;;;;23.35;9.77;;;;;;;;;;5013603;28;20026;-70
2023/12/04 08:52:32;;;;;;;22.83;10.23;;;;;;;;;;5012234;28;20032;-69
2023/12/04 08:55:17;;;;;;;26.02;9.43;;;;;;;;;;5013674;28;20037;-70
2023/12/04 08:58:03;;;;;;;27.17;10.70;;;;;;;;;;5012512;28;20025;-70
2023/12/04 09:00:49;;;;;;;24.45;9.35;;;;;;;;;;5012018;28;20034;-69
2023/12/04 09:03:35;;;;;;;24.92;9.00;;;;;;;;;;5012951;28;20084;-69
2023/12/04 09:06:20;;;;;;;26.85;9.70;;;;;;;;;;5007711;28;20053;-69
2023/12/04 09:09:06;;;;;;;21.80;9.07;;;;;;;;;;4992505;28;20026;-69
2023/12/04 09:11:52;;;;;;;25.30;9.48;;;;;;;;;;5012699;28;20026;-69
2023/12/04 09:14:37;;;;;;;23.85;8.88;;;;;;;;;;5012755;28;20029;-69
2023/12/04 09:17:23;;;;;;;22.67;7.90;;;;;;;;;;5013060;28;20033;-69
2023/12/04 09:20:09;;;;;;;27.15;8.50;;;;;;;;;;5011875;28;20128;-69
2023/12/04 09:22:54;;;;;;;22.40;8.75;;;;;;;;;;5012453;28;20030;-69
2023/12/04 09:25:40;;;;;;;21.92;8.98;;;;;;;;;;5012777;28;20483;-69
2023/12/04 09:28:25;;;;;;;25.02;8.52;;;;;;;;;;5012348;28;20018;-69
2023/12/04 09:31:11;;;;;;;22.55;8.75;;;;;;;;;;5013351;28;20034;-69
2023/12/04 09:33:57;;;;;;;18.73;7.32;;;;;;;;;;5012367;28;20021;-69
2023/12/04 09:36:42;;;;;;;25.98;8.65;;;;;;;;;;5011535;28;20057;-69
2023/12/04 09:39:28;;;;;;;20.60;8.60;;;;;;;;;;5012389;28;20449;-69
2023/12/04 09:42:14;;;;;;;24.90;8.90;;;;;;;;;;5013112;28;20021;-69
2023/12/04 09:45:01;;;;;;;22.00;8.65;;;;;;;;;;4992552;28;20026;-69
2023/12/04 09:47:48;;;;;;;27.23;9.77;;;;;;;;;;4980112;28;20031;-69
2023/12/04 09:50:34;;;;;;;22.88;8.40;;;;;;;;;;4998229;28;20032;-69
2023/12/04 09:53:20;;;;;;;30.13;9.88;;;;;;;;;;5012046;28;20037;-69
2023/12/04 09:56:07;;;;;;;22.23;9.00;;;;;;;;;;5004037;28;20372;-70
2023/12/04 09:58:58;;;;;;;23.67;8.50;;;;;;;;;;4997226;28;20030;-70
2023/12/04 10:01:44;;;;;;;19.45;7.50;;;;;;;;;;4985623;28;20030;-70
2023/12/04 10:04:31;;;;;;;29.15;9.50;;;;;;;;;;4977705;28;20109;-70
2023/12/04 10:07:17;;;;;;;24.90;8.77;;;;;;;;;;4988407;28;20065;-70
2023/12/04 10:10:05;;;;;;;23.20;8.52;;;;;;;;;;4992166;28;20030;-69
2023/12/04 10:12:51;;;;;;;22.15;9.00;;;;;;;;;;5000930;28;20048;-69
2023/12/04 10:15:52;;;;;;;20.83;8.27;;;;;;;;;;5011947;28;20034;-69
2023/12/04 10:18:37;;;;;;;28.23;9.27;;;;;;;;;;5011397;28;20018;-69
2023/12/04 10:21:23;;;;;;;23.75;8.82;;;;;;;;;;5011863;28;20652;-69
2023/12/04 10:24:09;;;;;;;27.10;10.32;;;;;;;;;;5012907;28;20478;-69
2023/12/04 10:26:54;;;;;;;22.63;9.75;;;;;;;;;;4998404;28;20029;-69
2023/12/04 10:29:43;;;;;;;23.58;8.20;;;;;;;;;;5011473;28;20112;-69
2023/12/04 10:32:28;;;;;;;23.77;9.85;;;;;;;;;;4996956;28;20022;-69
2023/12/04 10:35:14;;;;;;;24.55;9.35;;;;;;;;;;5012164;28;20096;-69
2023/12/04 10:37:59;;;;;;;23.15;7.78;;;;;;;;;;5011751;28;20563;-69
2023/12/04 10:40:45;;;;;;;21.42;7.55;;;;;;;;;;4997915;28;20109;-70
2023/12/04 10:43:31;;;;;;;23.38;10.48;;;;;;;;;;4998041;28;20049;-69
2023/12/04 10:46:17;;;;;;;21.33;8.68;;;;;;;;;;4997547;28;20025;-69
2023/12/04 10:49:04;;;;;;;23.25;9.35;;;;;;;;;;4996995;28;20105;-70
2023/12/04 10:51:50;;;;;;;25.65;9.40;;;;;;;;;;5010713;28;20442;-69
2023/12/04 10:54:36;;;;;;;23.17;8.75;;;;;;;;;;5010902;28;20025;-69
2023/12/04 10:57:26;;;;;;;21.98;8.55;;;;;;;;;;5015248;28;20036;-70
2023/12/04 11:00:16;;;;;;;24.30;9.52;;;;;;;;;;5001300;28;20127;-70
2023/12/04 11:03:05;;;;;;;22.77;10.00;;;;;;;;;;5014567;28;20022;-69
2023/12/04 11:05:55;;;;;;;21.85;9.55;;;;;;;;;;5001129;28;20029;-70
2023/12/04 11:08:42;;;;;;;30.95;10.07;;;;;;;;;;5015394;28;20108;-69
2023/12/04 11:11:31;;;;;;;26.35;10.18;;;;;;;;;;4999520;28;20030;-69
2023/12/04 11:14:22;;;;;;;25.85;9.75;;;;;;;;;;5001125;28;20025;-69
2023/12/04 11:17:11;;;;;;;26.67;9.73;;;;;;;;;;5004779;28;20034;-69
2023/12/04 11:20:07;;;;;;;25.88;9.68;;;;;;;;;;4981864;28;20084;-69
2023/12/04 11:22:53;;;;;;;19.70;8.70;;;;;;;;;;5004191;28;20018;-69
2023/12/04 11:25:39;;;;;;;24.45;9.43;;;;;;;;;;5000421;28;20092;-69
2023/12/04 11:28:26;;;;;;;22.80;9.13;;;;;;;;;;4999616;28;20087;-68
2023/12/04 11:31:11;;;;;;;18.17;8.13;;;;;;;;;;5015000;28;20026;-69
2023/12/04 11:34:04;;;;;;;21.15;7.85;;;;;;;;;;5000380;28;20100;-69
2023/12/04 11:36:51;;;;;;;25.35;9.38;;;;;;;;;;5014730;28;20057;-69
2023/12/04 11:39:37;;;;;;;20.48;8.70;;;;;;;;;;5001041;28;20054;-69
2023/12/04 11:42:24;;;;;;;24.10;8.88;;;;;;;;;;5000849;28;20076;-69
2023/12/04 11:45:10;;;;;;;22.30;9.75;;;;;;;;;;4967551;28;20026;-69
2023/12/04 11:47:57;;;;;;;24.00;9.65;;;;;;;;;;4995376;28;20088;-69
2023/12/04 11:50:43;;;;;;;22.02;8.77;;;;;;;;;;5000134;28;20030;-69
2023/12/04 11:53:29;;;;;;;23.52;8.45;;;;;;;;;;5015092;28;20026;-69
2023/12/04 11:56:15;;;;;;;24.73;9.25;;;;;;;;;;5012885;28;20030;-69
2023/12/04 11:59:04;;;;;;;29.27;11.15;;;;;;;;;;5014723;28;20018;-69
2023/12/04 12:01:51;;;;;;;21.30;8.82;;;;;;;;;;5008763;28;20034;-69
2023/12/04 12:04:37;;;;;;;25.08;8.80;;;;;;;;;;4999975;28;20030;-69
2023/12/04 12:07:23;;;;;;;23.65;9.68;;;;;;;;;;5012676;28;20483;-70
2023/12/04 12:10:09;;;;;;;23.88;8.60;;;;;;;;;;4999394;28;20029;-69
2023/12/04 12:12:55;;;;;;;19.30;8.45;;;;;;;;;;5000353;28;20021;-69
2023/12/04 12:15:42;;;;;;;25.80;8.82;;;;;;;;;;5013608;28;20412;-69
2023/12/04 12:18:28;;;;;;;25.58;10.50;;;;;;;;;;5013539;28;20022;-69
2023/12/04 12:21:14;;;;;;;20.83;8.27;;;;;;;;;;5013293;28;20032;-69
2023/12/04 12:24:00;;;;;;;23.40;8.63;;;;;;;;;;4999796;28;20084;-69
2023/12/04 12:26:46;;;;;;;22.08;9.57;;;;;;;;;;5012928;28;20029;-69
2023/12/04 12:29:31;;;;;;;19.67;7.85;;;;;;;;;;5000019;28;20069;-69
2023/12/04 12:32:17;;;;;;;21.33;8.43;;;;;;;;;;5044014;23;20048;-68
2023/12/04 12:35:07;;;;;;;23.75;9.35;;;;;;;;;;5034423;28;20034;-69
2023/12/04 12:37:53;;;;;;;26.52;8.93;;;;;;;;;;5023800;28;20038;-68
2023/12/04 12:40:39;;;;;;;28.95;10.82;;;;;;;;;;5014211;28;20112;-69
2023/12/04 12:43:27;;;;;;;24.65;9.68;;;;;;;;;;5018671;28;20021;-69
2023/12/04 12:46:13;;;;;;;18.15;8.85;;;;;;;;;;5019257;28;20164;-70
2023/12/04 12:48:59;;;;;;;22.02;8.70;;;;;;;;;;5019507;28;20446;-69
2023/12/04 12:51:45;;;;;;;24.15;10.18;;;;;;;;;;5041076;28;20553;-69
2023/12/04 12:54:32;;;;;;;32.95;10.95;;;;;;;;;;5052137;28;20025;-69
2023/12/04 12:57:18;;;;;;;24.50;9.00;;;;;;;;;;5044054;28;20036;-69
2023/12/04 13:00:05;;;;;;;22.73;9.25;;;;;;;;;;5053528;28;20036;-69
2023/12/04 13:02:53;;;;;;;24.60;9.48;;;;;;;;;;5018962;28;20022;-69
2023/12/04 13:05:39;;;;;;;20.77;10.65;;;;;;;;;;5012527;28;20514;-69
2023/12/04 13:08:25;;;;;;;23.38;9.85;;;;;;;;;;5013365;28;20395;-68
2023/12/04 13:11:10;;;;;;;24.33;8.85;;;;;;;;;;5014941;28;20033;-69
2023/12/04 13:13:57;;;;;;;25.42;9.75;;;;;;;;;;4998271;28;20076;-68
2023/12/04 13:16:43;;;;;;;30.42;9.52;;;;;;;;;;5014206;28;20442;-69
2023/12/04 13:19:31;;;;;;;28.75;10.18;;;;;;;;;;5013301;28;20148;-69
2023/12/04 13:22:17;;;;;;;25.80;9.80;;;;;;;;;;5012963;28;20030;-69
2023/12/04 13:25:07;;;;;;;25.50;10.40;;;;;;;;;;5016246;28;20029;-69
2023/12/04 13:27:53;;;;;;;34.28;12.52;;;;;;;;;;5033811;28;20028;-68
2023/12/04 13:30:39;;;;;;;25.73;11.68;;;;;;;;;;5021003;28;20021;-69
2023/12/04 13:33:26;;;;;;;25.25;9.75;;;;;;;;;;5033519;28;20048;-69
2023/12/04 13:36:11;;;;;;;31.83;10.32;;;;;;;;;;5032686;28;20035;-69
2023/12/04 13:38:57;;;;;;;29.60;11.82;;;;;;;;;;5000735;28;20018;-68
2023/12/04 13:44:51;;;;;;;21.40;10.07;;;;;;;;;;5021553;28;20021;-69
2023/12/04 13:47:37;;;;;;;31.35;10.10;;;;;;;;;;5033194;28;20029;-69
2023/12/04 13:50:23;;;;;;;25.67;9.93;;;;;;;;;;5029778;28;20037;-68
2023/12/04 13:53:08;;;;;;;24.75;9.45;;;;;;;;;;5014926;28;20022;-69
2023/12/04 13:58:44;;;;;;;28.80;11.00;;;;;;;;;;5032531;28;20399;-70
2023/12/04 14:01:29;;;;;;;26.35;12.15;;;;;;;;;;5019849;28;20025;-68
2023/12/04 14:04:18;;;;;;;36.58;10.63;;;;;;;;;;5032401;28;20026;-69
2023/12/04 14:07:04;;;;;;;27.38;9.38;;;;;;;;;;5035964;28;20095;-68
2023/12/04 14:09:49;;;;;;;29.90;10.75;;;;;;;;;;5032195;28;20025;-68
2023/12/04 14:12:36;;;;;;;25.65;9.70;;;;;;;;;;5027525;28;20051;-68
2023/12/04 14:15:22;;;;;;;29.25;11.82;;;;;;;;;;5023895;28;20068;-68
2023/12/04 14:18:07;;;;;;;29.67;11.07;;;;;;;;;;5005464;28;20033;-68
2023/12/04 14:20:53;;;;;;;35.05;11.23;;;;;;;;;;5025208;28;20036;-68
2023/12/04 14:23:39;;;;;;;33.00;11.35;;;;;;;;;;5019715;28;20022;-68
2023/12/04 14:26:25;;;;;;;27.73;9.90;;;;;;;;;;5029256;28;20056;-69
2023/12/04 14:29:13;;;;;;;32.08;10.25;;;;;;;;;;5002461;28;20022;-68
2023/12/04 14:31:58;;;;;;;29.30;11.95;;;;;;;;;;5012311;28;20496;-68
2023/12/04 14:34:44;;;;;;;34.17;11.43;;;;;;;;;;5003107;28;20065;-68
2023/12/04 14:37:30;;;;;;;30.13;10.55;;;;;;;;;;5028123;28;20029;-68
2023/12/04 14:40:15;;;;;;;29.67;11.05;;;;;;;;;;5029697;28;20030;-68
2023/12/04 14:43:01;;;;;;;31.67;10.63;;;;;;;;;;5034433;28;20018;-68
2023/12/04 14:45:47;;;;;;;24.85;10.77;;;;;;;;;;5028639;28;20561;-68
2023/12/04 14:48:33;;;;;;;26.80;10.65;;;;;;;;;;5036310;28;20060;-68
2023/12/04 14:51:19;;;;;;;31.95;10.30;;;;;;;;;;5011521;28;20511;-68
2023/12/04 15:15:30;;;;;;;27.83;10.35;;;;;;;;;;5050542;28;20028;-67
2023/12/04 15:21:15;;;;;;;28.70;11.35;;;;;;;;;;5050683;28;20033;-68
2023/12/04 15:24:01;;;;;;;29.13;10.27;;;;;;;;;;5037181;28;20026;-68
2023/12/04 15:26:47;;;;;;;33.03;10.48;;;;;;;;;;5032303;28;20029;-68
2023/12/04 15:29:32;;;;;;;30.52;11.80;;;;;;;;;;5019936;28;20026;-68
2023/12/04 15:32:18;;;;;;;32.92;11.27;;;;;;;;;;5011486;28;20026;-68
2023/12/04 15:35:05;;;;;;;33.63;11.85;;;;;;;;;;5019027;28;20061;-68
2023/12/04 15:37:50;;;;;;;23.92;10.25;;;;;;;;;;5012154;28;20030;-68
2023/12/04 15:40:36;;;;;;;32.50;11.40;;;;;;;;;;5020175;28;20081;-68
2023/12/04 15:43:22;;;;;;;35.10;11.15;;;;;;;;;;5036154;28;20021;-68
2023/12/04 15:46:07;;;;;;;26.58;12.07;;;;;;;;;;5035527;28;20021;-68
2023/12/04 15:48:53;;;;;;;25.20;10.43;;;;;;;;;;5015818;28;20034;-68
2023/12/04 15:51:39;;;;;;;31.73;10.23;;;;;;;;;;5016358;28;20448;-68
2023/12/04 15:54:25;;;;;;;38.90;13.63;;;;;;;;;;5016327;28;20399;-68
2023/12/04 15:57:11;;;;;;;27.38;11.00;;;;;;;;;;5015451;28;20053;-68
2023/12/04 15:59:56;;;;;;;33.80;11.13;;;;;;;;;;5016091;28;20083;-68
2023/12/04 16:02:42;;;;;;;37.45;13.18;;;;;;;;;;5014885;28;20026;-68
2023/12/04 16:05:28;;;;;;;31.65;12.85;;;;;;;;;;5023702;28;20064;-68
2023/12/04 16:08:13;;;;;;;29.05;10.23;;;;;;;;;;5054396;28;20021;-68
2023/12/04 16:10:59;;;;;;;26.10;10.27;;;;;;;;;;5037456;28;20039;-68
2023/12/04 16:13:45;;;;;;;35.40;13.90;;;;;;;;;;5049006;28;20028;-68
2023/12/04 16:16:30;;;;;;;29.02;10.75;;;;;;;;;;5054482;28;20053;-68
2023/12/04 16:19:16;;;;;;;29.45;12.65;;;;;;;;;;5018372;28;20022;-68
2023/12/04 16:22:01;;;;;;;38.50;13.40;;;;;;;;;;5023009;28;20028;-68
2023/12/04 16:24:47;;;;;;;41.15;13.52;;;;;;;;;;5034834;28;20052;-68
2023/12/04 16:27:33;;;;;;;34.58;12.98;;;;;;;;;;5034079;28;20021;-68
2023/12/04 16:30:19;;;;;;;32.90;11.80;;;;;;;;;;5002393;28;20080;-68
2023/12/04 16:33:04;;;;;;;28.48;10.80;;;;;;;;;;5000758;28;20492;-68
2023/12/04 16:35:50;;;;;;;30.33;11.25;;;;;;;;;;5037049;28;20137;-68
2023/12/04 16:38:36;;;;;;;30.38;11.57;;;;;;;;;;5034030;28;20026;-68
2023/12/04 16:41:21;;;;;;;35.00;13.07;;;;;;;;;;5040918;28;20088;-68
2023/12/04 16:44:07;;;;;;;30.83;11.30;;;;;;;;;;5053264;28;20021;-68